Phoenix, Arizona
Traffic Map
Current Weather Conditions
Phoenix, Arizona
Few Clouds
Few Clouds
75°
Feels Like: 75°
Wind Chill: 75° Ceiling: Unl
Heat Index: 75° Visibility: 10mi
Dew Point: 27° Wind: 6mph
Humidity: 17% Direction: 120° (ESE)
Pressure: 30.01in Gusts: 0mph
Raw Report DataKPHX 141851Z 12005KT 10SM FEW250 24/M03 A3001 RMK AO2 SLP150 T02391028
Traffic Incident Summary
Active as of:
Severity:
Category:
InformationThere was an issue retrieving the traffic information for this location. Please try a different location or try again shortly.
Advertisements
Track Severe Weather on mobile